Date,TemperatureHighF,TemperatureAvgF,TemperatureLowF,DewpointHighF,DewpointAvgF,DewpointLowF,HumidityHigh,HumidityAvg,HumidityLow,PressureMaxIn,PressureMinIn,WindSpeedMaxMPH,WindSpeedAvgMPH,GustSpeedMaxMPH,PrecipitationSumIn
2013-3-1,30,28,27,27,23,21,92,81,74,30.23,30.13,12,6,16,0.00
2013-3-2,36,28,25,23,20,19,86,73,51,30.29,30.16,12,5,0,0.00
2013-3-3,57,41,25,37,28,19,79,60,43,30.16,29.76,17,10,25,0.00
2013-3-4,64,53,43,46,40,32,71,60,48,29.85,29.62,21,10,28,0.00
2013-3-5,43,37,30,34,26,19,100,67,45,30.28,29.85,18,12,28,0.00
2013-3-6,45,33,21,27,22,16,85,65,48,30.37,30.22,15,4,16,0.00
2013-3-7,63,48,36,30,27,25,69,48,23,30.23,30.12,17,8,23,0.00
2013-3-8,63,53,43,41,35,30,71,52,38,30.21,30.03,20,12,30,0.00
2013-3-9,66,58,48,57,47,37,100,70,52,30.04,29.70,24,14,33,0.00
2013-3-10,54,43,30,54,43,27,100,97,87,29.93,29.65,20,10,29,0.00
2013-3-11,43,33,27,28,24,21,100,73,41,30.01,29.89,14,-6,23,0.00
2013-3-12,52,40,28,36,28,21,80,61,43,30.30,29.99,13,5,17,0.00
2013-3-13,50,38,25,27,23,19,86,57,34,30.44,30.30,9,-55,0,0.00
2013-3-14,70,53,37,45,34,21,62,48,35,30.33,30.10,23,10,30,0.00
2013-3-15,77,64,48,52,47,43,81,56,33,30.11,29.79,21,10,29,0.00
2013-3-16,66,58,45,52,46,37,76,65,51,29.89,29.77,18,12,27,0.00
2013-3-17,45,40,37,41,38,36,100,95,75,29.90,29.69,18,11,27,0.00
2013-3-18,54,44,37,43,37,27,100,78,34,30.04,29.69,13,6,22,0.00
2013-3-19,52,42,34,30,25,18,74,52,27,30.24,30.03,15,6,22,0.00
2013-3-20,45,36,30,32,23,16,92,61,30,30.34,30.10,16,-128,23,0.00
2013-3-21,39,34,30,30,20,12,92,60,32,30.10,29.81,15,11,24,0.00
2013-3-22,37,35,32,37,34,30,100,93,86,29.92,29.82,12,6,16,0.00
2013-3-23,39,37,36,39,37,34,100,99,93,29.92,29.72,13,8,17,0.00
2013-3-24,37,31,25,37,29,19,100,92,73,30.09,29.65,16,9,25,0.00
2013-3-25,34,27,21,25,20,16,85,75,59,30.29,30.07,15,8,22,0.00
2013-3-26,43,32,21,27,22,19,92,70,45,30.39,30.27,12,1,0,0.00
2013-3-27,57,43,30,28,25,19,74,49,28,30.28,30.14,16,7,24,0.00
2013-3-28,66,57,46,50,40,28,67,54,46,30.20,30.11,14,8,20,0.00
2013-3-29,68,58,52,55,52,48,100,79,59,30.19,30.10,10,5,0,0.00
2013-3-30,68,58,54,57,53,-100,100,86,68,30.11,29.89,13,5,20,0.00
2013-3-31,64,56,46,54,47,37,100,75,36,29.99,29.87,16,-171,23,0.00